Time;durP1;ratioP1;P1;durP2;ratioP2;P2;SDS_P1;SDS_P2;PMS_P1;PMS_P2;Temp;Humidity;BMP_temperature;BMP_pressure;BME280_temperature;BME280_humidity;BME280_pressure;Samples;Min_cycle;Max_cycle;Signal;HPM_P1;HPM_P2
2023/12/15 00:02:13;;;;;;;;;;;;;;;;;;4960132;28;19930;-68
2023/12/15 00:04:38;;;;;;;;;;;;;;;;;;4962516;28;19929;-67
2023/12/15 00:07:04;;;;;;;;;;;;;;;;;;4948366;28;20320;-68
2023/12/15 00:09:30;;;;;;;;;;;;;;;;;;4946526;28;19933;-68
2023/12/15 00:11:56;;;;;;;;;;;;;;;;;;4952518;28;19930;-68
2023/12/15 00:14:22;;;;;;;;;;;;;;;;;;4951062;28;19960;-68
2023/12/15 00:16:48;;;;;;;;;;;;;;;;;;4966182;28;19922;-68
2023/12/15 00:19:14;;;;;;;;;;;;;;;;;;4953615;28;20004;-68
2023/12/15 00:21:40;;;;;;;;;;;;;;;;;;4952246;28;20025;-68
2023/12/15 00:24:08;;;;;;;;;;;;;;;;;;4955653;28;20983;-68
2023/12/15 00:26:34;;;;;;;;;;;;;;;;;;4971731;28;19926;-68
2023/12/15 00:29:00;;;;;;;;;;;;;;;;;;4958402;28;19941;-68
2023/12/15 00:31:29;;;;;;;;;;;;;;;;;;4968700;28;19926;-68
2023/12/15 00:33:55;;;;;;;;;;;;;;;;;;4970503;28;20334;-68
2023/12/15 00:36:21;;;;;;;;;;;;;;;;;;4953690;28;19922;-68
2023/12/15 00:38:47;;;;;;;;;;;;;;;;;;4971636;28;19922;-67
2023/12/15 00:41:13;;;;;;;;;;;;;;;;;;4955263;28;19934;-67
2023/12/15 00:43:39;;;;;;;;;;;;;;;;;;4954175;28;19930;-68
2023/12/15 00:46:05;;;;;;;;;;;;;;;;;;4967099;28;19945;-67
2023/12/15 00:48:31;;;;;;;;;;;;;;;;;;4970340;28;20375;-67
2023/12/15 00:50:57;;;;;;;;;;;;;;;;;;4952485;28;19930;-68
2023/12/15 00:53:23;;;;;;;;;;;;;;;;;;4967232;28;20284;-68
2023/12/15 00:55:49;;;;;;;;;;;;;;;;;;4964713;28;19926;-68
2023/12/15 00:58:15;;;;;;;;;;;;;;;;;;4955743;28;19930;-69
2023/12/15 01:00:41;;;;;;;;;;;;;;;;;;4970003;28;19936;-68
2023/12/15 01:03:07;;;;;;;;;;;;;;;;;;4954229;28;20013;-68
2023/12/15 01:05:33;;;;;;;;;;;;;;;;;;4957435;28;20017;-69
2023/12/15 01:07:59;;;;;;;;;;;;;;;;;;4950949;28;19925;-69
2023/12/15 01:10:25;;;;;;;;;;;;;;;;;;4962565;28;19926;-69
2023/12/15 01:12:50;;;;;;;;;;;;;;;;;;4951336;28;19929;-68
2023/12/15 01:15:16;;;;;;;;;;;;;;;;;;4961665;28;20348;-69
2023/12/15 01:17:42;;;;;;;;;;;;;;;;;;4972743;28;19933;-69
2023/12/15 01:20:10;;;;;;;;;;;;;;;;;;4958441;28;20384;-69
2023/12/15 01:22:36;;;;;;;;;;;;;;;;;;4958917;28;19934;-69
2023/12/15 01:25:02;;;;;;;;;;;;;;;;;;4962088;28;20021;-69
2023/12/15 01:27:28;;;;;;;;;;;;;;;;;;4970791;28;20467;-69
2023/12/15 01:29:54;;;;;;;;;;;;;;;;;;4959632;28;19926;-69
2023/12/15 01:32:19;;;;;;;;;;;;;;;;;;4970326;28;19926;-69
2023/12/15 01:34:45;;;;;;;;;;;;;;;;;;4974732;28;20000;-69
2023/12/15 01:37:11;;;;;;;;;;;;;;;;;;4964906;28;20399;-69
2023/12/15 01:39:37;;;;;;;;;;;;;;;;;;4960257;28;19968;-68
2023/12/15 01:42:03;;;;;;;;;;;;;;;;;;4963744;28;19966;-67
2023/12/15 01:44:29;;;;;;;;;;;;;;;;;;4971858;28;20020;-68
2023/12/15 01:46:55;;;;;;;;;;;;;;;;;;4971682;28;20304;-67
2023/12/15 01:49:21;;;;;;;;;;;;;;;;;;4956075;28;19934;-67
2023/12/15 01:51:47;;;;;;;;;;;;;;;;;;4955509;28;19926;-67
2023/12/15 01:54:13;;;;;;;;;;;;;;;;;;4952728;28;19922;-67
2023/12/15 01:56:38;;;;;;;;;;;;;;;;;;4968750;28;20288;-68
2023/12/15 01:59:04;;;;;;;;;;;;;;;;;;4969761;28;19930;-68
2023/12/15 02:01:30;;;;;;;;;;;;;;;;;;4957000;28;19933;-68
2023/12/15 02:03:56;;;;;;;;;;;;;;;;;;4970751;28;19926;-68
2023/12/15 02:06:22;;;;;;;;;;;;;;;;;;4959144;28;19922;-67
2023/12/15 02:08:48;;;;;;;;;;;;;;;;;;4960837;28;19936;-67
2023/12/15 02:11:14;;;;;;;;;;;;;;;;;;4973731;28;19989;-68
2023/12/15 02:13:40;;;;;;;;;;;;;;;;;;4953460;28;20710;-68
2023/12/15 02:16:06;;;;;;;;;;;;;;;;;;4960214;28;20489;-68
2023/12/15 02:18:32;;;;;;;;;;;;;;;;;;4964215;28;19989;-68
2023/12/15 02:20:58;;;;;;;;;;;;;;;;;;4966193;28;20016;-68
2023/12/15 02:23:24;;;;;;;;;;;;;;;;;;4962955;28;19941;-68
2023/12/15 02:25:49;;;;;;;;;;;;;;;;;;4970895;28;19930;-68
2023/12/15 02:28:15;;;;;;;;;;;;;;;;;;4952127;28;19926;-68
2023/12/15 02:30:41;;;;;;;;;;;;;;;;;;4956613;28;20376;-68
2023/12/15 02:33:07;;;;;;;;;;;;;;;;;;4974074;28;19922;-69
2023/12/15 02:35:33;;;;;;;;;;;;;;;;;;4955842;28;19933;-69
2023/12/15 02:38:00;;;;;;;;;;;;;;;;;;4956465;28;19922;-68
2023/12/15 02:40:26;;;;;;;;;;;;;;;;;;4962944;28;20327;-68
2023/12/15 02:42:52;;;;;;;;;;;;;;;;;;4961126;28;19922;-68
2023/12/15 02:45:18;;;;;;;;;;;;;;;;;;4955261;28;19926;-68
2023/12/15 02:47:44;;;;;;;;;;;;;;;;;;4955441;28;20773;-68
2023/12/15 02:50:11;;;;;;;;;;;;;;;;;;4954951;28;19930;-68
2023/12/15 02:52:37;;;;;;;;;;;;;;;;;;4952509;28;20404;-68
2023/12/15 02:55:03;;;;;;;;;;;;;;;;;;4963394;28;19922;-68
2023/12/15 02:57:29;;;;;;;;;;;;;;;;;;4955482;28;19970;-69
2023/12/15 02:59:55;;;;;;;;;;;;;;;;;;4958940;28;19977;-69
2023/12/15 03:02:20;;;;;;;;;;;;;;;;;;4956428;28;19973;-68
2023/12/15 03:04:46;;;;;;;;;;;;;;;;;;4958415;28;20352;-68
2023/12/15 03:07:12;;;;;;;;;;;;;;;;;;4967349;28;20407;-68
2023/12/15 03:09:38;;;;;;;;;;;;;;;;;;4967695;28;19937;-68
2023/12/15 03:12:04;;;;;;;;;;;;;;;;;;4956486;28;19934;-68
2023/12/15 03:14:30;;;;;;;;;;;;;;;;;;4954374;28;19922;-67
2023/12/15 03:16:56;;;;;;;;;;;;;;;;;;4953730;28;20372;-68
2023/12/15 03:19:22;;;;;;;;;;;;;;;;;;4957354;28;20389;-69
2023/12/15 03:21:48;;;;;;;;;;;;;;;;;;4955697;28;20005;-69
2023/12/15 03:24:14;;;;;;;;;;;;;;;;;;4972783;28;19969;-68
2023/12/15 03:26:39;;;;;;;;;;;;;;;;;;4962600;28;19922;-68
2023/12/15 03:29:05;;;;;;;;;;;;;;;;;;4982052;28;19959;-68
2023/12/15 03:31:31;;;;;;;;;;;;;;;;;;4953812;28;19926;-68
2023/12/15 03:33:57;;;;;;;;;;;;;;;;;;4973453;28;20372;-68
2023/12/15 03:36:23;;;;;;;;;;;;;;;;;;4957347;28;19922;-67
2023/12/15 03:38:49;;;;;;;;;;;;;;;;;;4957144;28;19933;-67
2023/12/15 03:41:15;;;;;;;;;;;;;;;;;;4963973;28;20344;-68
2023/12/15 03:43:41;;;;;;;;;;;;;;;;;;4953671;28;19922;-69
2023/12/15 03:46:07;;;;;;;;;;;;;;;;;;4956347;28;20273;-69
2023/12/15 03:48:33;;;;;;;;;;;;;;;;;;4972116;28;20002;-69
2023/12/15 03:50:59;;;;;;;;;;;;;;;;;;4955325;28;19930;-69
2023/12/15 03:53:24;;;;;;;;;;;;;;;;;;4959046;28;20708;-69
2023/12/15 03:55:50;;;;;;;;;;;;;;;;;;4954271;28;19929;-69
2023/12/15 03:58:16;;;;;;;;;;;;;;;;;;4971384;28;19926;-68
2023/12/15 04:00:42;;;;;;;;;;;;;;;;;;4965493;28;19926;-68
2023/12/15 04:03:08;;;;;;;;;;;;;;;;;;4955228;28;19923;-68
2023/12/15 04:05:34;;;;;;;;;;;;;;;;;;4952537;28;19949;-68
2023/12/15 04:08:00;;;;;;;;;;;;;;;;;;4952771;28;19941;-67
2023/12/15 04:10:26;;;;;;;;;;;;;;;;;;4954841;28;19936;-67
2023/12/15 04:12:52;;;;;;;;;;;;;;;;;;4964466;28;20013;-68
2023/12/15 04:15:19;;;;;;;;;;;;;;;;;;4956777;28;20397;-68
2023/12/15 04:17:45;;;;;;;;;;;;;;;;;;4959044;28;19925;-68
2023/12/15 04:20:11;;;;;;;;;;;;;;;;;;4963477;28;19998;-68
2023/12/15 04:22:37;;;;;;;;;;;;;;;;;;4965524;28;19922;-68
2023/12/15 04:25:03;;;;;;;;;;;;;;;;;;4958915;28;19974;-67
2023/12/15 04:27:30;;;;;;;;;;;;;;;;;;4965291;28;19922;-69
2023/12/15 04:29:56;;;;;;;;;;;;;;;;;;4956431;28;20037;-68
2023/12/15 04:32:22;;;;;;;;;;;;;;;;;;4971306;28;20588;-68
2023/12/15 04:34:48;;;;;;;;;;;;;;;;;;4982373;28;19922;-68
2023/12/15 04:37:14;;;;;;;;;;;;;;;;;;4971595;28;19949;-68
2023/12/15 04:39:40;;;;;;;;;;;;;;;;;;4979997;28;20371;-68
2023/12/15 04:42:06;;;;;;;;;;;;;;;;;;4981570;28;20317;-68
2023/12/15 04:44:31;;;;;;;;;;;;;;;;;;4961945;28;19933;-68
2023/12/15 04:46:57;;;;;;;;;;;;;;;;;;4960695;28;19926;-69
2023/12/15 04:49:23;;;;;;;;;;;;;;;;;;4955118;28;20435;-68
2023/12/15 04:51:49;;;;;;;;;;;;;;;;;;4960113;28;19937;-68
2023/12/15 04:54:15;;;;;;;;;;;;;;;;;;4959054;28;19945;-68
2023/12/15 04:56:41;;;;;;;;;;;;;;;;;;4958407;28;19928;-67
2023/12/15 04:59:07;;;;;;;;;;;;;;;;;;4972581;28;19926;-69
2023/12/15 05:01:33;;;;;;;;;;;;;;;;;;4956280;28;19932;-69
2023/12/15 05:03:59;;;;;;;;;;;;;;;;;;4963116;28;19922;-68
2023/12/15 05:06:26;;;;;;;;;;;;;;;;;;4971765;28;19922;-68
2023/12/15 05:08:52;;;;;;;;;;;;;;;;;;4968756;28;20797;-68
2023/12/15 05:11:17;;;;;;;;;;;;;;;;;;4955308;28;20017;-68
2023/12/15 05:13:43;;;;;;;;;;;;;;;;;;4959336;28;20037;-68
2023/12/15 05:16:09;;;;;;;;;;;;;;;;;;4955215;28;19933;-69
2023/12/15 05:18:35;;;;;;;;;;;;;;;;;;4970520;28;21146;-68
2023/12/15 05:21:01;;;;;;;;;;;;;;;;;;4953610;28;19924;-68
2023/12/15 05:23:27;;;;;;;;;;;;;;;;;;4952991;28;20012;-68
2023/12/15 05:25:53;;;;;;;;;;;;;;;;;;4982376;23;19965;-69
2023/12/15 05:28:19;;;;;;;;;;;;;;;;;;4994697;28;20373;-69
2023/12/15 05:30:45;;;;;;;;;;;;;;;;;;4990097;28;19926;-69
2023/12/15 05:33:11;;;;;;;;;;;;;;;;;;4993291;28;20465;-70
2023/12/15 05:35:36;;;;;;;;;;;;;;;;;;4991894;28;19927;-69
2023/12/15 05:38:02;;;;;;;;;;;;;;;;;;4990634;28;19922;-69
2023/12/15 05:40:28;;;;;;;;;;;;;;;;;;4988016;28;19922;-69
2023/12/15 05:42:54;;;;;;;;;;;;;;;;;;4984385;28;19957;-70
2023/12/15 05:45:20;;;;;;;;;;;;;;;;;;4991036;28;20020;-69
2023/12/15 05:47:46;;;;;;;;;;;;;;;;;;4994413;28;20334;-70
2023/12/15 05:50:12;;;;;;;;;;;;;;;;;;4989771;28;19926;-70
2023/12/15 05:52:38;;;;;;;;;;;;;;;;;;4990984;28;20470;-69
2023/12/15 05:55:04;;;;;;;;;;;;;;;;;;4992801;28;20322;-69
2023/12/15 05:57:30;;;;;;;;;;;;;;;;;;4991271;28;20287;-69
2023/12/15 05:59:56;;;;;;;;;;;;;;;;;;4986998;28;19925;-70
2023/12/15 06:02:22;;;;;;;;;;;;;;;;;;4989766;28;20430;-68
2023/12/15 06:04:47;;;;;;;;;;;;;;;;;;4989230;28;19926;-68
2023/12/15 06:07:15;;;;;;;;;;;;;;;;;;4996020;28;19948;-68
2023/12/15 06:09:41;;;;;;;;;;;;;;;;;;4987300;28;19937;-69
2023/12/15 06:12:07;;;;;;;;;;;;;;;;;;4984015;28;20271;-68
2023/12/15 06:14:33;;;;;;;;;;;;;;;;;;4983298;28;19930;-68
2023/12/15 06:17:00;;;;;;;;;;;;;;;;;;4990960;28;19937;-69
2023/12/15 06:19:26;;;;;;;;;;;;;;;;;;4990992;28;19965;-69
2023/12/15 06:21:52;;;;;;;;;;;;;;;;;;4988964;28;19969;-70
2023/12/15 06:24:19;;;;;;;;;;;;;;;;;;4993263;28;20330;-69
2023/12/15 06:26:45;;;;;;;;;;;;;;;;;;4990164;28;19926;-69
2023/12/15 06:29:11;;;;;;;;;;;;;;;;;;4988350;28;19976;-69
2023/12/15 06:31:37;;;;;;;;;;;;;;;;;;4989982;28;19969;-69
2023/12/15 06:34:03;;;;;;;;;;;;;;;;;;4993483;28;20339;-68
2023/12/15 06:36:29;;;;;;;;;;;;;;;;;;4991211;28;19929;-69
2023/12/15 06:38:55;;;;;;;;;;;;;;;;;;4993414;28;19926;-69
2023/12/15 06:41:21;;;;;;;;;;;;;;;;;;4995672;28;19921;-68
2023/12/15 06:43:47;;;;;;;;;;;;;;;;;;4999269;28;19927;-68
2023/12/15 06:46:12;;;;;;;;;;;;;;;;;;4987879;28;19926;-70
2023/12/15 06:48:38;;;;;;;;;;;;;;;;;;4989855;28;19964;-69
2023/12/15 06:51:04;;;;;;;;;;;;;;;;;;4993141;28;19977;-69
2023/12/15 06:53:30;;;;;;;;;;;;;;;;;;4997781;28;20457;-69
2023/12/15 06:55:58;;;;;;;;;;;;;;;;;;4990637;28;19925;-69
2023/12/15 06:58:24;;;;;;;;;;;;;;;;;;4995082;28;19930;-69
2023/12/15 07:00:50;;;;;;;;;;;;;;;;;;4988290;28;19925;-69
2023/12/15 07:03:16;;;;;;;;;;;;;;;;;;4994536;28;20328;-69
2023/12/15 07:05:42;;;;;;;;;;;;;;;;;;4992026;28;20043;-69
2023/12/15 07:08:08;;;;;;;;;;;;;;;;;;4996396;28;19964;-69
2023/12/15 07:10:34;;;;;;;;;;;;;;;;;;4992976;28;19980;-69
2023/12/15 07:13:00;;;;;;;;;;;;;;;;;;4992957;28;20076;-70
2023/12/15 07:15:27;;;;;;;;;;;;;;;;;;4997132;28;19949;-69
2023/12/15 07:17:53;;;;;;;;;;;;;;;;;;4995297;28;20359;-70
2023/12/15 07:20:20;;;;;;;;;;;;;;;;;;4989673;28;19922;-69
2023/12/15 07:22:46;;;;;;;;;;;;;;;;;;4995674;28;19928;-69
2023/12/15 07:25:12;;;;;;;;;;;;;;;;;;4992480;28;20294;-69
2023/12/15 07:27:38;;;;;;;;;;;;;;;;;;4992458;28;19922;-69
2023/12/15 07:30:04;;;;;;;;;;;;;;;;;;4996871;28;19930;-69
2023/12/15 07:32:30;;;;;;;;;;;;;;;;;;4991814;28;19922;-69
2023/12/15 07:34:57;;;;;;;;;;;;;;;;;;4985434;28;19926;-69
2023/12/15 07:37:23;;;;;;;;;;;;;;;;;;4989926;28;19928;-69
2023/12/15 07:39:49;;;;;;;;;;;;;;;;;;4988799;28;19921;-69
2023/12/15 07:42:15;;;;;;;;;;;;;;;;;;4989294;28;19922;-70
2023/12/15 07:44:41;;;;;;;;;;;;;;;;;;4984550;28;19930;-69
2023/12/15 07:47:07;;;;;;;;;;;;;;;;;;4987986;28;19922;-70
2023/12/15 07:49:34;;;;;;;;;;;;;;;;;;4997031;28;20594;-70
2023/12/15 07:52:00;;;;;;;;;;;;;;;;;;4991957;28;19949;-69
2023/12/15 07:54:26;;;;;;;;;;;;;;;;;;4995520;28;20371;-69
2023/12/15 07:56:52;;;;;;;;;;;;;;;;;;4988499;28;20316;-66
2023/12/15 07:59:18;;;;;;;;;;;;;;;;;;4996080;28;19929;-69
2023/12/15 08:01:43;;;;;;;;;;;;;;;;;;4983350;28;19921;-70
2023/12/15 08:04:10;;;;;;;;;;;;;;;;;;4991034;28;19955;-70
2023/12/15 08:06:37;;;;;;;;;;;;;;;;;;4990502;28;19933;-69
2023/12/15 08:09:04;;;;;;;;;;;;;;;;;;4991440;28;20406;-70
2023/12/15 08:11:30;;;;;;;;;;;;;;;;;;4988886;28;20407;-68
2023/12/15 08:13:56;;;;;;;;;;;;;;;;;;4991889;28;19981;-68
2023/12/15 08:16:21;;;;;;;;;;;;;;;;;;4983256;28;19926;-68
2023/12/15 08:18:48;;;;;;;;;;;;;;;;;;4991270;28;19928;-69
2023/12/15 08:21:13;;;;;;;;;;;;;;;;;;4984968;28;19926;-69
2023/12/15 08:23:39;;;;;;;;;;;;;;;;;;4987064;28;19921;-69
2023/12/15 08:26:05;;;;;;;;;;;;;;;;;;4987345;28;19929;-70
2023/12/15 08:28:31;;;;;;;;;;;;;;;;;;4988827;28;19921;-70
2023/12/15 08:30:58;;;;;;;;;;;;;;;;;;4982707;28;20435;-69
2023/12/15 08:33:24;;;;;;;;;;;;;;;;;;4987357;28;19921;-69
2023/12/15 08:35:50;;;;;;;;;;;;;;;;;;4980516;28;19934;-69
2023/12/15 08:38:16;;;;;;;;;;;;;;;;;;4979107;28;19925;-69
2023/12/15 08:40:42;;;;;;;;;;;;;;;;;;4985735;28;20426;-68
2023/12/15 08:43:08;;;;;;;;;;;;;;;;;;4984832;28;20442;-68
2023/12/15 08:45:34;;;;;;;;;;;;;;;;;;4981188;28;19957;-69
2023/12/15 08:48:00;;;;;;;;;;;;;;;;;;4980481;28;20352;-69
2023/12/15 08:50:26;;;;;;;;;;;;;;;;;;4986146;28;20018;-69
2023/12/15 08:52:52;;;;;;;;;;;;;;;;;;4983988;28;19922;-69
2023/12/15 08:55:17;;;;;;;;;;;;;;;;;;4982360;28;19926;-69
2023/12/15 08:57:43;;;;;;;;;;;;;;;;;;4983948;28;19933;-68
2023/12/15 09:00:09;;;;;;;;;;;;;;;;;;4967303;28;20271;-68
2023/12/15 09:02:35;;;;;;;;;;;;;;;;;;5001390;28;19942;-68
2023/12/15 09:05:01;;;;;;;;;;;;;;;;;;4983553;28;19929;-69
2023/12/15 09:07:27;;;;;;;;;;;;;;;;;;4988186;28;19941;-68
2023/12/15 09:09:53;;;;;;;;;;;;;;;;;;4988369;28;20000;-68
2023/12/15 09:12:19;;;;;;;;;;;;;;;;;;4987106;28;20048;-68
2023/12/15 09:14:47;;;;;;;;;;;;;;;;;;4983922;28;20446;-69
2023/12/15 09:17:13;;;;;;;;;;;;;;;;;;4986068;28;20001;-69
2023/12/15 09:19:39;;;;;;;;;;;;;;;;;;4989048;28;20024;-68
2023/12/15 09:22:05;;;;;;;;;;;;;;;;;;4982619;28;19930;-70
2023/12/15 09:24:31;;;;;;;;;;;;;;;;;;4963483;28;24417;-69
2023/12/15 09:26:57;;;;;;;;;;;;;;;;;;4998181;28;19984;-69
2023/12/15 09:29:23;;;;;;;;;;;;;;;;;;5004287;28;20383;-69
2023/12/15 09:31:48;;;;;;;;;;;;;;;;;;4983088;28;23054;-69
2023/12/15 09:34:14;;;;;;;;;;;;;;;;;;4996150;28;19922;-69
2023/12/15 09:36:40;;;;;;;;;;;;;;;;;;4992194;28;19926;-69
2023/12/15 09:39:06;;;;;;;;;;;;;;;;;;4987334;28;19921;-69
2023/12/15 09:41:32;;;;;;;;;;;;;;;;;;4982255;28;20311;-69
2023/12/15 09:43:59;;;;;;;;;;;;;;;;;;4988135;28;19921;-69
2023/12/15 09:46:25;;;;;;;;;;;;;;;;;;4986688;28;20299;-69
2023/12/15 09:48:50;;;;;;;;;;;;;;;;;;4997260;28;19928;-69
2023/12/15 09:51:16;;;;;;;;;;;;;;;;;;4994866;28;19933;-69
2023/12/15 09:53:42;;;;;;;;;;;;;;;;;;4989972;28;19954;-69
2023/12/15 09:56:08;;;;;;;;;;;;;;;;;;4991999;28;19930;-69
2023/12/15 09:58:34;;;;;;;;;;;;;;;;;;4997958;28;20283;-69
2023/12/15 10:01:00;;;;;;;;;;;;;;;;;;4999790;28;19928;-68
2023/12/15 10:03:26;;;;;;;;;;;;;;;;;;4994820;28;20433;-68
2023/12/15 10:05:52;;;;;;;;;;;;;;;;;;4987280;28;19975;-70
2023/12/15 10:08:22;;;;;;;;;;;;;;;;;;4996155;28;19928;-69
2023/12/15 10:10:48;;;;;;;;;;;;;;;;;;4994754;28;20292;-69
2023/12/15 10:13:14;;;;;;;;;;;;;;;;;;4988261;28;19948;-68
2023/12/15 10:15:40;;;;;;;;;;;;;;;;;;4991656;28;19928;-69
2023/12/15 10:18:06;;;;;;;;;;;;;;;;;;4977282;28;19945;-69
2023/12/15 10:20:32;;;;;;;;;;;;;;;;;;4986074;28;19929;-69
2023/12/15 10:22:58;;;;;;;;;;;;;;;;;;4998337;28;19922;-69
2023/12/15 10:25:24;;;;;;;;;;;;;;;;;;5005457;28;20395;-68
2023/12/15 10:27:50;;;;;;;;;;;;;;;;;;4992386;28;19979;-68
2023/12/15 10:30:16;;;;;;;;;;;;;;;;;;4990682;28;20023;-69
2023/12/15 10:32:42;;;;;;;;;;;;;;;;;;4984440;28;22075;-69
2023/12/15 10:35:08;;;;;;;;;;;;;;;;;;4969845;28;24586;-69
2023/12/15 10:37:34;;;;;;;;;;;;;;;;;;4966377;28;20296;-70
2023/12/15 10:40:00;;;;;;;;;;;;;;;;;;4980395;28;20684;-69
2023/12/15 10:42:26;;;;;;;;;;;;;;;;;;4971184;28;20620;-70
2023/12/15 10:44:52;;;;;;;;;;;;;;;;;;4990839;28;20009;-69
2023/12/15 10:47:18;;;;;;;;;;;;;;;;;;4991669;28;19921;-70
2023/12/15 10:49:44;;;;;;;;;;;;;;;;;;5008223;28;21270;-69
2023/12/15 10:52:09;;;;;;;;;;;;;;;;;;4983672;28;19937;-69
2023/12/15 10:54:37;;;;;;;;;;;;;;;;;;4977542;28;22081;-68
2023/12/15 10:57:03;;;;;;;;;;;;;;;;;;4988225;28;19922;-68
2023/12/15 10:59:31;;;;;;;;;;;;;;;;;;4987894;28;20397;-68
2023/12/15 11:01:56;;;;;;;;;;;;;;;;;;4998306;28;20536;-68
2023/12/15 11:04:23;;;;;;;;;;;;;;;;;;4980650;28;20013;-68
2023/12/15 11:06:48;;;;;;;;;;;;;;;;;;4996175;28;19921;-69
2023/12/15 11:09:14;;;;;;;;;;;;;;;;;;4988695;28;20390;-69
2023/12/15 11:11:41;;;;;;;;;;;;;;;;;;4987174;28;19926;-69
2023/12/15 11:14:06;;;;;;;;;;;;;;;;;;4979769;28;19930;-69
2023/12/15 11:16:34;;;;;;;;;;;;;;;;;;4977658;28;19922;-69
2023/12/15 11:19:00;;;;;;;;;;;;;;;;;;4989382;28;20023;-70
2023/12/15 11:21:26;;;;;;;;;;;;;;;;;;4993304;28;20360;-69
2023/12/15 11:23:53;;;;;;;;;;;;;;;;;;4982839;28;20023;-69
2023/12/15 11:26:18;;;;;;;;;;;;;;;;;;4987430;28;20053;-68
2023/12/15 11:28:45;;;;;;;;;;;;;;;;;;4996120;28;20426;-68
2023/12/15 11:31:11;;;;;;;;;;;;;;;;;;4998378;28;20013;-70
2023/12/15 11:33:39;;;;;;;;;;;;;;;;;;4993690;28;20045;-69
2023/12/15 11:36:06;;;;;;;;;;;;;;;;;;4997355;28;20326;-70
2023/12/15 11:38:32;;;;;;;;;;;;;;;;;;4989189;28;20012;-69
2023/12/15 11:40:59;;;;;;;;;;;;;;;;;;4992199;28;20376;-69
2023/12/15 11:43:25;;;;;;;;;;;;;;;;;;4987787;28;19922;-67
2023/12/15 11:45:51;;;;;;;;;;;;;;;;;;4988529;28;19932;-68
2023/12/15 11:48:17;;;;;;;;;;;;;;;;;;4989875;28;19976;-68
2023/12/15 11:50:43;;;;;;;;;;;;;;;;;;4981392;28;19934;-68
2023/12/15 11:53:15;;;;;;;;;;;;;;;;;;4981784;28;20048;-68
2023/12/15 11:55:41;;;;;;;;;;;;;;;;;;4984478;28;19972;-68
2023/12/15 11:58:07;;;;;;;;;;;;;;;;;;4995315;28;20306;-68
2023/12/15 12:00:33;;;;;;;;;;;;;;;;;;4986131;28;19926;-68
2023/12/15 12:02:59;;;;;;;;;;;;;;;;;;4988738;28;19922;-68
2023/12/15 12:05:24;;;;;;;;;;;;;;;;;;4988732;28;19952;-68
2023/12/15 12:07:50;;;;;;;;;;;;;;;;;;4988038;28;19933;-69
2023/12/15 12:10:16;;;;;;;;;;;;;;;;;;4987722;28;19929;-69
2023/12/15 12:12:42;;;;;;;;;;;;;;;;;;4994001;28;19925;-69
2023/12/15 12:15:09;;;;;;;;;;;;;;;;;;4987641;28;19995;-69
2023/12/15 12:17:35;;;;;;;;;;;;;;;;;;4989070;28;19925;-69
2023/12/15 12:20:01;;;;;;;;;;;;;;;;;;4989469;28;20416;-69
2023/12/15 12:22:27;;;;;;;;;;;;;;;;;;4989078;28;20004;-69
2023/12/15 12:24:53;;;;;;;;;;;;;;;;;;4989036;28;20004;-69
2023/12/15 12:27:19;;;;;;;;;;;;;;;;;;4987244;28;19939;-69
2023/12/15 12:29:46;;;;;;;;;;;;;;;;;;4980895;28;19934;-67
2023/12/15 12:32:12;;;;;;;;;;;;;;;;;;4987941;28;19929;-67
2023/12/15 12:34:38;;;;;;;;;;;;;;;;;;4988684;28;19926;-68
2023/12/15 12:37:04;;;;;;;;;;;;;;;;;;4981118;28;19926;-68
2023/12/15 12:39:30;;;;;;;;;;;;;;;;;;4993686;28;20260;-68
2023/12/15 12:41:56;;;;;;;;;;;;;;;;;;4993595;28;19930;-67
2023/12/15 12:44:22;;;;;;;;;;;;;;;;;;4986373;28;20510;-67
2023/12/15 12:46:48;;;;;;;;;;;;;;;;;;4991875;28;19960;-67
2023/12/15 12:49:14;;;;;;;;;;;;;;;;;;4992582;28;19928;-67
2023/12/15 12:51:39;;;;;;;;;;;;;;;;;;4992543;28;20049;-67
2023/12/15 12:54:05;;;;;;;;;;;;;;;;;;4991372;28;19929;-67
2023/12/15 12:56:31;;;;;;;;;;;;;;;;;;4987605;28;19926;-67
2023/12/15 12:58:57;;;;;;;;;;;;;;;;;;4990203;28;20319;-67
2023/12/15 13:01:28;;;;;;;;;;;;;;;;;;4983845;28;19926;-68
2023/12/15 13:03:54;;;;;;;;;;;;;;;;;;4977366;28;19922;-68
2023/12/15 13:06:21;;;;;;;;;;;;;;;;;;4978197;28;19925;-68
2023/12/15 13:08:47;;;;;;;;;;;;;;;;;;4987940;28;20360;-68
2023/12/15 13:11:13;;;;;;;;;;;;;;;;;;4988899;28;19933;-68
2023/12/15 13:13:39;;;;;;;;;;;;;;;;;;4996783;28;19930;-68
2023/12/15 13:16:05;;;;;;;;;;;;;;;;;;4992126;28;19921;-68
2023/12/15 13:18:31;;;;;;;;;;;;;;;;;;4983061;28;19921;-68
2023/12/15 13:20:58;;;;;;;;;;;;;;;;;;4993584;28;20301;-68
2023/12/15 13:23:24;;;;;;;;;;;;;;;;;;4996457;28;19928;-68
2023/12/15 13:25:50;;;;;;;;;;;;;;;;;;4995775;28;19926;-67
2023/12/15 13:28:18;;;;;;;;;;;;;;;;;;4983498;28;19930;-67
2023/12/15 13:30:44;;;;;;;;;;;;;;;;;;4986314;28;20721;-67
2023/12/15 13:33:10;;;;;;;;;;;;;;;;;;4986812;28;19977;-67
2023/12/15 13:35:36;;;;;;;;;;;;;;;;;;4992615;28;20372;-67
2023/12/15 13:38:02;;;;;;;;;;;;;;;;;;4997381;28;19928;-67
2023/12/15 13:40:28;;;;;;;;;;;;;;;;;;4988540;28;20280;-68
2023/12/15 13:42:54;;;;;;;;;;;;;;;;;;4988273;28;19921;-67
2023/12/15 13:45:21;;;;;;;;;;;;;;;;;;4996423;28;19921;-68
2023/12/15 13:47:48;;;;;;;;;;;;;;;;;;4983727;28;19926;-68
2023/12/15 13:50:15;;;;;;;;;;;;;;;;;;4988685;28;19926;-68
2023/12/15 13:52:41;;;;;;;;;;;;;;;;;;4983263;28;19929;-67
2023/12/15 13:55:07;;;;;;;;;;;;;;;;;;4974356;28;19926;-67
2023/12/15 13:57:33;;;;;;;;;;;;;;;;;;4990420;28;19952;-67
2023/12/15 13:59:59;;;;;;;;;;;;;;;;;;4993536;28;19972;-66
2023/12/15 14:02:24;;;;;;;;;;;;;;;;;;4985445;28;20449;-67
2023/12/15 14:04:51;;;;;;;;;;;;;;;;;;4989024;28;19969;-68
2023/12/15 14:07:17;;;;;;;;;;;;;;;;;;4994759;28;19926;-68
2023/12/15 14:09:43;;;;;;;;;;;;;;;;;;4993246;28;20438;-68
2023/12/15 14:12:09;;;;;;;;;;;;;;;;;;4989250;28;19922;-65
2023/12/15 14:14:34;;;;;;;;;;;;;;;;;;4990871;28;20045;-66
2023/12/15 14:17:02;;;;;;;;;;;;;;;;;;4987646;28;19925;-67
2023/12/15 14:19:28;;;;;;;;;;;;;;;;;;4986601;28;19925;-67
2023/12/15 14:21:54;;;;;;;;;;;;;;;;;;4994313;28;19928;-67
2023/12/15 14:24:20;;;;;;;;;;;;;;;;;;4992552;28;19922;-67
2023/12/15 14:26:46;;;;;;;;;;;;;;;;;;4988427;28;20317;-67
2023/12/15 14:29:12;;;;;;;;;;;;;;;;;;4989600;28;20334;-67
2023/12/15 14:31:38;;;;;;;;;;;;;;;;;;4989671;28;19929;-67
2023/12/15 14:34:04;;;;;;;;;;;;;;;;;;4988159;28;19929;-67
2023/12/15 14:36:30;;;;;;;;;;;;;;;;;;4990285;28;19930;-67
2023/12/15 14:38:56;;;;;;;;;;;;;;;;;;4993785;28;20316;-67
2023/12/15 14:41:22;;;;;;;;;;;;;;;;;;4973359;28;19922;-68
2023/12/15 14:43:48;;;;;;;;;;;;;;;;;;4989432;28;19921;-67
2023/12/15 14:46:14;;;;;;;;;;;;;;;;;;4994283;28;19959;-67
2023/12/15 14:48:39;;;;;;;;;;;;;;;;;;4982185;28;20378;-68
2023/12/15 14:51:05;;;;;;;;;;;;;;;;;;4986612;28;20481;-68
2023/12/15 14:53:32;;;;;;;;;;;;;;;;;;4993740;28;20386;-68
2023/12/15 14:55:58;;;;;;;;;;;;;;;;;;4985764;28;19937;-68
2023/12/15 14:58:24;;;;;;;;;;;;;;;;;;4983985;28;19922;-69
2023/12/15 15:00:50;;;;;;;;;;;;;;;;;;4985387;28;19922;-68
2023/12/15 15:03:16;;;;;;;;;;;;;;;;;;4976614;28;19984;-68
2023/12/15 15:05:43;;;;;;;;;;;;;;;;;;4981901;28;20264;-68
2023/12/15 15:08:09;;;;;;;;;;;;;;;;;;4988544;28;19933;-68
2023/12/15 15:10:35;;;;;;;;;;;;;;;;;;4989253;28;19929;-68
2023/12/15 15:13:02;;;;;;;;;;;;;;;;;;4987287;28;19922;-68
2023/12/15 15:15:28;;;;;;;;;;;;;;;;;;4972279;28;19926;-68
2023/12/15 15:17:53;;;;;;;;;;;;;;;;;;4982200;28;19926;-69
2023/12/15 15:20:19;;;;;;;;;;;;;;;;;;4984735;28;19948;-69
2023/12/15 15:22:45;;;;;;;;;;;;;;;;;;4985759;28;19972;-67
2023/12/15 15:25:11;;;;;;;;;;;;;;;;;;4963513;28;19926;-67
2023/12/15 15:27:37;;;;;;;;;;;;;;;;;;4981727;28;20335;-69
2023/12/15 15:30:04;;;;;;;;;;;;;;;;;;4975798;28;19972;-68
2023/12/15 15:32:30;;;;;;;;;;;;;;;;;;4980921;28;20020;-68
2023/12/15 15:34:56;;;;;;;;;;;;;;;;;;4981740;28;20020;-68
2023/12/15 15:37:22;;;;;;;;;;;;;;;;;;4981168;28;19933;-68
2023/12/15 15:39:48;;;;;;;;;;;;;;;;;;4976376;28;19952;-68
2023/12/15 15:42:13;;;;;;;;;;;;;;;;;;4984397;28;20732;-68
2023/12/15 15:44:39;;;;;;;;;;;;;;;;;;4978558;28;19968;-68
2023/12/15 15:47:05;;;;;;;;;;;;;;;;;;4975391;28;20012;-68
2023/12/15 15:49:32;;;;;;;;;;;;;;;;;;4983127;28;20009;-68
2023/12/15 15:51:58;;;;;;;;;;;;;;;;;;4984414;28;19944;-68
2023/12/15 15:54:24;;;;;;;;;;;;;;;;;;4985455;28;20384;-68
2023/12/15 15:56:50;;;;;;;;;;;;;;;;;;4980934;28;19926;-68
2023/12/15 15:59:16;;;;;;;;;;;;;;;;;;4975433;28;19929;-68
2023/12/15 16:01:42;;;;;;;;;;;;;;;;;;4983744;28;19925;-69
2023/12/15 16:04:09;;;;;;;;;;;;;;;;;;4985978;28;20348;-69
2023/12/15 16:06:34;;;;;;;;;;;;;;;;;;4984079;28;19961;-67
2023/12/15 16:09:01;;;;;;;;;;;;;;;;;;4985584;28;19925;-69
2023/12/15 16:11:27;;;;;;;;;;;;;;;;;;4982508;28;19980;-69
2023/12/15 16:13:53;;;;;;;;;;;;;;;;;;4984090;28;20342;-69
2023/12/15 16:16:19;;;;;;;;;;;;;;;;;;4978195;28;20004;-69
2023/12/15 16:18:47;;;;;;;;;;;;;;;;;;4976377;28;19926;-68
2023/12/15 16:21:13;;;;;;;;;;;;;;;;;;4984545;28;19921;-68
2023/12/15 16:23:38;;;;;;;;;;;;;;;;;;4979317;28;19932;-68
2023/12/15 16:26:04;;;;;;;;;;;;;;;;;;4984439;28;20002;-68
2023/12/15 16:28:30;;;;;;;;;;;;;;;;;;4978637;28;20460;-68
2023/12/15 16:30:56;;;;;;;;;;;;;;;;;;4985170;28;19944;-68
2023/12/15 16:33:22;;;;;;;;;;;;;;;;;;4982725;28;20320;-68
2023/12/15 16:35:48;;;;;;;;;;;;;;;;;;4982273;28;20398;-68
2023/12/15 16:38:16;;;;;;;;;;;;;;;;;;4989955;28;19925;-69